createdAt,value
2017-08-16T00:00:24.218Z,19.20
2017-08-16T00:02:53.439Z,19.20
2017-08-16T00:05:22.380Z,19.20
2017-08-16T00:07:51.506Z,19.20
2017-08-16T00:10:20.455Z,19.20
2017-08-16T00:12:49.996Z,19.30
2017-08-16T00:15:18.881Z,19.30
2017-08-16T00:17:47.897Z,19.30
2017-08-16T00:20:16.674Z,19.30
2017-08-16T00:22:45.537Z,19.30
2017-08-16T00:25:15.029Z,19.30
2017-08-16T00:27:44.385Z,19.30
2017-08-16T00:30:13.425Z,19.30
2017-08-16T00:32:42.441Z,19.20
2017-08-16T00:35:11.514Z,19.20
2017-08-16T00:37:41.125Z,19.20
2017-08-16T00:40:10.190Z,19.20
2017-08-16T00:42:39.115Z,19.10
2017-08-16T00:45:08.522Z,19.10
2017-08-16T00:47:37.380Z,19.10
2017-08-16T00:50:06.528Z,19.10
2017-08-16T00:52:36.281Z,19.10
2017-08-16T00:55:05.577Z,19.10
2017-08-16T00:57:34.437Z,19.00
2017-08-16T01:00:03.408Z,19.00
2017-08-16T01:02:32.297Z,18.90
2017-08-16T01:05:01.192Z,18.90
2017-08-16T01:07:30.328Z,18.90
2017-08-16T01:09:59.862Z,18.80
2017-08-16T01:12:28.883Z,18.80
2017-08-16T01:14:57.709Z,18.70
2017-08-16T01:17:26.521Z,18.70
2017-08-16T01:19:55.361Z,18.70
2017-08-16T01:22:24.595Z,18.70
2017-08-16T01:24:53.701Z,18.70
2017-08-16T01:27:22.845Z,18.60
2017-08-16T01:29:51.898Z,18.60
2017-08-16T01:32:20.895Z,18.50
2017-08-16T01:34:50.294Z,18.40
2017-08-16T01:37:20.210Z,18.40
2017-08-16T01:39:49.152Z,18.40
2017-08-16T01:42:18.876Z,18.40
2017-08-16T01:44:48.268Z,18.40
2017-08-16T01:47:17.363Z,18.40
2017-08-16T01:49:46.816Z,18.40
2017-08-16T01:52:15.646Z,18.40
2017-08-16T01:54:44.445Z,18.40
2017-08-16T01:57:13.630Z,18.30
2017-08-16T01:59:42.637Z,18.40
2017-08-16T02:02:11.760Z,18.40
2017-08-16T02:04:41.137Z,18.40
2017-08-16T02:07:10.052Z,18.30
2017-08-16T02:09:39.020Z,18.30
2017-08-16T02:12:08.337Z,18.30
2017-08-16T02:14:37.276Z,18.30
2017-08-16T02:17:06.126Z,18.30
2017-08-16T02:19:35.426Z,18.30
2017-08-16T02:22:04.177Z,18.30
2017-08-16T02:24:32.999Z,18.30
2017-08-16T02:27:02.094Z,18.30
2017-08-16T02:29:32.191Z,18.30
2017-08-16T02:32:01.998Z,18.30
2017-08-16T02:34:31.209Z,18.30
2017-08-16T02:37:00.188Z,18.30
2017-08-16T02:39:29.037Z,18.30
2017-08-16T02:41:58.049Z,18.20
2017-08-16T02:44:26.961Z,18.20
2017-08-16T02:46:56.032Z,18.10
2017-08-16T02:49:25.339Z,18.10
2017-08-16T02:51:54.261Z,18.10
2017-08-16T02:54:24.142Z,18.10
2017-08-16T02:56:53.428Z,18.00
2017-08-16T02:59:22.533Z,18.00
2017-08-16T03:01:52.252Z,18.00
2017-08-16T03:04:21.510Z,18.00
2017-08-16T03:06:50.347Z,17.90
2017-08-16T03:09:19.306Z,17.90
2017-08-16T03:11:48.231Z,17.90
2017-08-16T03:14:17.543Z,17.80
2017-08-16T03:16:46.405Z,17.80
2017-08-16T03:19:15.373Z,17.80
2017-08-16T03:21:45.345Z,17.80
2017-08-16T03:24:14.321Z,17.90
2017-08-16T03:26:43.430Z,17.90
2017-08-16T03:29:12.430Z,17.90
2017-08-16T03:31:41.966Z,17.90
2017-08-16T03:34:11.802Z,17.90
2017-08-16T03:36:40.944Z,18.00
2017-08-16T03:39:09.989Z,18.00
2017-08-16T03:41:39.230Z,18.00
2017-08-16T03:44:08.900Z,18.00
2017-08-16T03:46:38.116Z,18.00
2017-08-16T03:49:07.245Z,18.00
2017-08-16T03:51:36.359Z,17.90
2017-08-16T03:54:05.596Z,17.90
2017-08-16T03:56:35.289Z,17.90
2017-08-16T03:59:04.401Z,17.90
2017-08-16T04:01:33.504Z,17.90
2017-08-16T04:04:03.084Z,17.90
2017-08-16T04:06:32.312Z,17.90
2017-08-16T04:09:01.477Z,17.90
2017-08-16T04:11:30.729Z,17.90
2017-08-16T04:14:00.808Z,18.00
2017-08-16T04:16:30.019Z,18.00
2017-08-16T04:18:59.594Z,18.00
2017-08-16T04:21:28.729Z,18.10
2017-08-16T04:23:57.736Z,18.10
2017-08-16T04:26:26.958Z,18.00
2017-08-16T04:28:55.930Z,18.10
2017-08-16T04:31:24.962Z,18.00
2017-08-16T04:33:55.089Z,18.00
2017-08-16T04:36:24.011Z,18.10
2017-08-16T04:38:53.140Z,18.10
2017-08-16T04:41:22.203Z,18.10
2017-08-16T04:43:51.382Z,18.10
2017-08-16T04:46:22.565Z,18.10
2017-08-16T04:48:52.915Z,18.10
2017-08-16T04:51:24.154Z,18.10
2017-08-16T04:53:55.110Z,18.10
2017-08-16T04:56:28.105Z,18.10
2017-08-16T04:58:59.497Z,18.10
2017-08-16T05:01:30.533Z,18.20
2017-08-16T05:03:59.740Z,18.20
2017-08-16T05:06:28.693Z,18.20
2017-08-16T05:08:57.625Z,18.10
2017-08-16T05:11:26.843Z,18.10
2017-08-16T05:13:55.837Z,18.10
2017-08-16T05:16:26.049Z,18.10
2017-08-16T05:18:55.951Z,18.10
2017-08-16T05:21:25.083Z,18.10
2017-08-16T05:23:54.350Z,18.10
2017-08-16T05:26:23.314Z,18.10
2017-08-16T05:28:52.538Z,18.10
2017-08-16T05:31:21.736Z,18.10
2017-08-16T05:33:50.931Z,18.10
2017-08-16T05:36:20.053Z,18.10
2017-08-16T05:38:49.101Z,18.20
2017-08-16T05:41:17.977Z,18.20
2017-08-16T05:43:47.049Z,18.20
2017-08-16T05:46:15.913Z,18.20
2017-08-16T05:48:45.733Z,18.20
2017-08-16T05:51:14.609Z,18.30
2017-08-16T05:53:43.965Z,18.30
2017-08-16T05:56:13.041Z,18.30
2017-08-16T05:58:42.130Z,18.30
2017-08-16T06:01:10.982Z,18.30
2017-08-16T06:03:39.954Z,18.40
2017-08-16T06:06:09.086Z,18.40
2017-08-16T06:08:38.017Z,18.40
2017-08-16T06:11:06.965Z,18.40
2017-08-16T06:16:14.240Z,18.50
2017-08-16T06:18:44.867Z,18.50
2017-08-16T06:21:13.676Z,18.50
2017-08-16T06:23:42.753Z,18.50
2017-08-16T06:26:11.569Z,18.50
2017-08-16T06:28:40.457Z,18.50
2017-08-16T06:31:09.321Z,18.50
2017-08-16T06:33:38.200Z,18.50
2017-08-16T06:36:07.355Z,18.50
2017-08-16T06:38:36.400Z,18.60
2017-08-16T06:41:05.390Z,18.70
2017-08-16T06:43:34.407Z,18.70
2017-08-16T06:46:03.423Z,18.70
2017-08-16T06:48:32.684Z,18.70
2017-08-16T06:51:02.433Z,18.80
2017-08-16T06:53:31.234Z,18.80
2017-08-16T06:56:00.344Z,18.80
2017-08-16T06:58:29.281Z,18.70
2017-08-16T07:00:58.245Z,18.70
2017-08-16T07:03:27.549Z,18.70
2017-08-16T07:05:56.579Z,18.70
2017-08-16T07:08:25.618Z,18.70
2017-08-16T07:10:54.677Z,18.70
2017-08-16T07:13:23.706Z,18.80
2017-08-16T07:15:52.730Z,18.80
2017-08-16T07:18:21.717Z,18.80
2017-08-16T07:20:50.697Z,18.80
2017-08-16T07:23:19.645Z,18.90
2017-08-16T07:25:48.688Z,18.90
2017-08-16T07:28:17.675Z,18.90
2017-08-16T07:30:46.631Z,19.00
2017-08-16T07:33:15.913Z,19.20
2017-08-16T07:35:44.930Z,19.30
2017-08-16T07:38:14.007Z,19.30
2017-08-16T07:40:43.061Z,19.30
2017-08-16T07:43:12.083Z,19.30
2017-08-16T07:45:41.403Z,19.30
2017-08-16T07:48:10.369Z,19.30
2017-08-16T07:50:39.413Z,19.30
2017-08-16T07:53:08.423Z,19.30
2017-08-16T07:55:38.162Z,19.30
2017-08-16T07:58:07.165Z,19.30
2017-08-16T08:00:36.179Z,19.30
2017-08-16T08:03:05.377Z,19.40
2017-08-16T08:05:34.349Z,19.40
2017-08-16T08:08:03.363Z,19.50
2017-08-16T08:10:32.324Z,19.50
2017-08-16T08:13:01.332Z,19.60
2017-08-16T08:15:30.780Z,19.60
2017-08-16T08:17:59.936Z,19.70
2017-08-16T08:20:28.877Z,19.70
2017-08-16T08:22:57.921Z,19.80
2017-08-16T08:25:26.972Z,19.80
2017-08-16T08:27:56.419Z,19.90
2017-08-16T08:30:25.253Z,19.90
2017-08-16T08:32:54.249Z,19.90
2017-08-16T08:35:23.159Z,20.00
2017-08-16T08:37:51.969Z,20.00
2017-08-16T08:40:20.808Z,20.10
2017-08-16T08:42:49.658Z,20.10
2017-08-16T08:45:18.927Z,20.20
2017-08-16T08:47:47.932Z,20.20
2017-08-16T08:50:16.940Z,20.20
2017-08-16T08:52:46.004Z,20.20
2017-08-16T08:55:15.021Z,20.20
2017-08-16T08:57:44.294Z,20.30
2017-08-16T09:00:13.409Z,20.30
2017-08-16T09:02:42.432Z,20.30
2017-08-16T09:05:11.255Z,20.40
2017-08-16T09:07:40.145Z,20.50
2017-08-16T09:10:09.484Z,20.60
2017-08-16T09:12:38.315Z,20.60
2017-08-16T09:15:07.661Z,20.70
2017-08-16T09:17:36.906Z,20.70
2017-08-16T09:20:07.353Z,20.90
2017-08-16T09:22:36.929Z,21.00
2017-08-16T09:25:05.824Z,21.10
2017-08-16T09:27:34.719Z,21.40
2017-08-16T09:30:03.053Z,21.90
2017-08-16T09:32:31.209Z,22.60
2017-08-16T09:35:00.117Z,22.90
2017-08-16T09:37:28.302Z,23.10
2017-08-16T09:39:57.405Z,23.00
2017-08-16T09:42:26.416Z,23.00
2017-08-16T09:44:56.321Z,23.00
2017-08-16T09:47:25.423Z,23.00
2017-08-16T09:49:53.425Z,23.10
2017-08-16T09:52:21.789Z,23.20
2017-08-16T09:54:50.249Z,23.20
2017-08-16T09:57:18.394Z,23.00
2017-08-16T09:59:48.993Z,23.10
2017-08-16T10:02:17.842Z,23.10
2017-08-16T10:04:46.661Z,23.10
2017-08-16T10:07:15.882Z,23.20
2017-08-16T10:13:25.038Z,24.70
2017-08-16T10:15:55.067Z,24.00
2017-08-16T10:18:23.898Z,23.80
2017-08-16T10:20:52.746Z,23.70
2017-08-16T10:23:54.200Z,25.10
2017-08-16T10:26:22.491Z,27.00
2017-08-16T10:30:14.152Z,25.80
2017-08-16T10:32:43.132Z,25.40
2017-08-16T10:35:12.288Z,25.10
2017-08-16T10:37:43.230Z,25.00
2017-08-16T10:40:13.259Z,25.20
2017-08-16T10:42:42.412Z,25.00
2017-08-16T10:45:11.274Z,25.30
2017-08-16T10:47:40.138Z,24.90
2017-08-16T10:50:09.214Z,25.20
2017-08-16T10:52:38.216Z,25.30
2017-08-16T10:55:07.693Z,25.30
2017-08-16T10:57:36.990Z,25.70
2017-08-16T11:00:06.088Z,26.00
2017-08-16T11:02:35.095Z,26.10
2017-08-16T11:05:04.097Z,26.00
2017-08-16T11:07:33.164Z,26.20
2017-08-16T11:10:02.410Z,26.40
2017-08-16T11:12:31.407Z,26.60
2017-08-16T11:15:00.435Z,26.60
2017-08-16T11:17:29.498Z,26.60
2017-08-16T11:19:58.978Z,27.40
2017-08-16T11:22:27.993Z,27.20
2017-08-16T11:24:57.067Z,27.20
2017-08-16T11:27:26.223Z,27.00
2017-08-16T11:29:55.415Z,27.10
2017-08-16T11:32:25.618Z,27.20
2017-08-16T11:34:54.631Z,27.20
2017-08-16T11:37:23.599Z,27.50
2017-08-16T11:39:52.635Z,27.80
2017-08-16T11:42:21.667Z,28.00
2017-08-16T11:44:50.742Z,28.00
2017-08-16T11:47:19.739Z,28.00
2017-08-16T11:49:48.636Z,27.90
2017-08-16T11:52:17.614Z,28.10
2017-08-16T11:54:46.421Z,27.80
2017-08-16T11:57:15.263Z,27.60
2017-08-16T11:59:44.282Z,27.50
2017-08-16T12:02:13.456Z,27.80
2017-08-16T12:04:42.503Z,27.80
2017-08-16T12:07:11.616Z,28.30
2017-08-16T12:09:40.932Z,28.40
2017-08-16T12:12:10.135Z,28.30
2017-08-16T12:14:39.118Z,28.50
2017-08-16T12:17:08.165Z,29.20
2017-08-16T12:19:37.073Z,28.60
2017-08-16T12:22:05.922Z,28.20
2017-08-16T12:24:35.031Z,27.70
2017-08-16T12:27:03.995Z,27.70
2017-08-16T12:29:32.823Z,27.70
2017-08-16T12:32:01.712Z,27.50
2017-08-16T12:34:30.739Z,27.80
2017-08-16T12:36:59.801Z,27.90
2017-08-16T12:39:28.783Z,28.10
2017-08-16T12:41:57.870Z,28.30
2017-08-16T12:44:26.957Z,28.20
2017-08-16T12:46:55.973Z,28.10
2017-08-16T12:49:24.890Z,28.00
2017-08-16T12:51:54.242Z,27.80
2017-08-16T12:54:23.114Z,27.80
2017-08-16T12:56:51.891Z,28.10
2017-08-16T12:59:21.200Z,28.20
2017-08-16T13:01:50.200Z,28.50
2017-08-16T13:04:19.105Z,28.70
2017-08-16T13:06:47.925Z,28.30
2017-08-16T13:09:16.839Z,27.70
2017-08-16T13:11:45.926Z,27.20
2017-08-16T13:14:14.763Z,27.20
2017-08-16T13:16:43.699Z,27.10
2017-08-16T13:19:12.672Z,27.10
2017-08-16T13:21:41.637Z,27.30
2017-08-16T13:24:10.734Z,27.50
2017-08-16T13:26:39.735Z,27.70
2017-08-16T13:29:08.860Z,27.80
2017-08-16T13:31:37.698Z,27.80
2017-08-16T13:34:07.280Z,27.60
2017-08-16T13:36:36.238Z,27.60
2017-08-16T13:39:06.527Z,27.60
2017-08-16T13:41:35.542Z,27.60
2017-08-16T13:44:04.607Z,27.30
2017-08-16T13:46:33.683Z,27.00
2017-08-16T13:49:03.009Z,27.40
2017-08-16T13:51:32.018Z,27.30
2017-08-16T13:54:01.109Z,27.30
2017-08-16T13:56:30.145Z,26.90
2017-08-16T13:58:59.337Z,26.70
2017-08-16T14:01:28.555Z,26.70
2017-08-16T14:03:57.579Z,26.90
2017-08-16T14:06:26.796Z,26.90
2017-08-16T14:08:55.959Z,26.70
2017-08-16T14:11:25.042Z,26.40
2017-08-16T14:13:54.091Z,26.10
2017-08-16T14:16:23.847Z,26.20
2017-08-16T14:18:53.123Z,26.40
2017-08-16T14:21:22.703Z,26.40
2017-08-16T14:23:53.956Z,26.30
2017-08-16T14:26:23.348Z,26.30
2017-08-16T14:29:16.230Z,26.30
2017-08-16T14:31:45.442Z,26.30
2017-08-16T14:34:15.194Z,26.20
2017-08-16T14:36:44.572Z,26.20
2017-08-16T14:39:14.397Z,26.30
2017-08-16T14:41:43.485Z,26.30
2017-08-16T14:44:16.854Z,26.40
2017-08-16T14:46:46.076Z,26.30
2017-08-16T14:49:15.050Z,26.30
2017-08-16T14:51:44.075Z,26.30
2017-08-16T14:54:13.557Z,26.20
2017-08-16T14:56:43.059Z,26.20
2017-08-16T14:59:12.306Z,26.20
2017-08-16T15:01:42.427Z,26.20
2017-08-16T15:04:12.687Z,26.40
2017-08-16T15:06:42.205Z,26.50
2017-08-16T15:09:11.301Z,26.60
2017-08-16T15:11:41.758Z,26.60
2017-08-16T15:14:11.407Z,26.60
2017-08-16T15:16:40.717Z,26.50
2017-08-16T15:19:09.816Z,26.40
2017-08-16T15:21:39.448Z,26.30
2017-08-16T15:24:08.857Z,26.30
2017-08-16T15:26:38.272Z,26.20
2017-08-16T15:29:07.432Z,26.10
2017-08-16T15:31:36.324Z,26.10
2017-08-16T15:34:05.968Z,26.10
2017-08-16T15:36:35.193Z,26.10
2017-08-16T15:39:04.965Z,26.00
2017-08-16T15:41:34.388Z,25.90
2017-08-16T15:44:03.713Z,25.90
2017-08-16T15:46:32.718Z,25.80
2017-08-16T15:49:03.043Z,25.70
2017-08-16T15:51:32.201Z,25.60
2017-08-16T15:54:01.262Z,25.50
2017-08-16T15:56:30.345Z,25.50
2017-08-16T15:58:59.365Z,25.50
2017-08-16T16:01:28.605Z,25.50
2017-08-16T16:03:57.413Z,25.40
2017-08-16T16:06:26.400Z,25.40
2017-08-16T16:08:55.558Z,25.50
2017-08-16T16:11:24.576Z,25.60
2017-08-16T16:13:53.568Z,25.90
2017-08-16T16:16:22.838Z,26.10
2017-08-16T16:18:53.037Z,26.10
2017-08-16T16:21:23.090Z,25.90
2017-08-16T16:23:51.999Z,25.90
2017-08-16T16:26:20.938Z,25.80
2017-08-16T16:28:50.238Z,25.70
2017-08-16T16:31:19.606Z,25.70
2017-08-16T16:33:48.678Z,25.70
2017-08-16T16:36:17.716Z,25.50
2017-08-16T16:38:46.966Z,25.30
2017-08-16T16:41:16.002Z,25.30
2017-08-16T16:43:45.637Z,25.20
2017-08-16T16:46:14.780Z,25.10
2017-08-16T16:48:43.642Z,25.10
2017-08-16T16:51:13.127Z,25.00
2017-08-16T16:53:42.371Z,25.00
2017-08-16T16:56:11.516Z,25.00
2017-08-16T16:58:40.527Z,25.00
2017-08-16T17:01:09.758Z,25.00
2017-08-16T17:06:21.504Z,25.00
2017-08-16T17:08:50.865Z,24.90
2017-08-16T17:11:21.660Z,24.90
2017-08-16T17:13:50.636Z,24.80
2017-08-16T17:16:23.549Z,24.90
2017-08-16T17:18:52.714Z,24.90
2017-08-16T17:21:21.826Z,24.80
2017-08-16T17:23:51.079Z,24.80
2017-08-16T17:26:20.336Z,24.70
2017-08-16T17:28:49.433Z,24.70
2017-08-16T17:31:18.528Z,24.60
2017-08-16T17:33:48.103Z,24.60
2017-08-16T17:36:17.016Z,24.60
2017-08-16T17:38:47.849Z,24.50
2017-08-16T17:41:16.699Z,24.40
2017-08-16T17:43:46.162Z,24.40
2017-08-16T17:46:15.540Z,24.30
2017-08-16T17:48:44.659Z,24.30
2017-08-16T17:51:14.088Z,24.20
2017-08-16T17:53:43.068Z,24.20
2017-08-16T17:56:11.994Z,24.10
2017-08-16T17:58:40.894Z,24.10
2017-08-16T18:03:48.241Z,24.10
2017-08-16T18:06:17.606Z,24.10
2017-08-16T18:08:47.697Z,24.10
2017-08-16T18:11:16.918Z,24.00
2017-08-16T18:13:46.964Z,24.00
2017-08-16T18:16:18.115Z,23.90
2017-08-16T18:18:47.223Z,23.80
2017-08-16T18:21:16.110Z,23.80
2017-08-16T18:23:45.379Z,23.80
2017-08-16T18:26:14.398Z,23.70
2017-08-16T18:28:43.381Z,23.60
2017-08-16T18:31:12.467Z,23.50
2017-08-16T18:33:41.368Z,23.50
2017-08-16T18:36:10.760Z,23.50
2017-08-16T18:38:39.658Z,23.60
2017-08-16T18:41:08.556Z,23.60
2017-08-16T18:43:37.649Z,23.60
2017-08-16T18:46:07.720Z,23.50
2017-08-16T18:48:37.293Z,23.50
2017-08-16T18:51:06.642Z,23.50
2017-08-16T18:53:36.488Z,23.50
2017-08-16T18:56:05.567Z,23.30
2017-08-16T18:58:34.775Z,23.20
2017-08-16T19:01:03.900Z,23.20
2017-08-16T19:03:32.998Z,23.30
2017-08-16T19:06:02.182Z,23.30
2017-08-16T19:08:31.246Z,23.30
2017-08-16T19:11:00.280Z,23.30
2017-08-16T19:13:29.658Z,23.30
2017-08-16T19:15:58.705Z,23.30
2017-08-16T19:18:28.103Z,23.30
2017-08-16T19:20:57.472Z,23.20
2017-08-16T19:23:26.680Z,23.20
2017-08-16T19:25:55.968Z,23.20
2017-08-16T19:28:25.067Z,23.20
2017-08-16T19:30:54.505Z,23.30
2017-08-16T19:33:23.605Z,23.50
2017-08-16T19:35:52.634Z,23.60
2017-08-16T19:38:21.547Z,23.50
2017-08-16T19:40:50.495Z,23.40
2017-08-16T19:43:20.912Z,23.40
2017-08-16T19:45:49.976Z,23.30
2017-08-16T19:48:19.506Z,23.30
2017-08-16T19:50:48.780Z,23.30
2017-08-16T19:53:17.892Z,23.30
2017-08-16T19:55:46.939Z,23.30
2017-08-16T19:58:16.007Z,23.30
2017-08-16T20:00:45.246Z,23.30
2017-08-16T20:03:15.902Z,23.10
2017-08-16T20:05:44.990Z,22.90
2017-08-16T20:08:14.237Z,22.90
2017-08-16T20:10:43.181Z,22.90
2017-08-16T20:13:12.587Z,23.00
2017-08-16T20:15:41.601Z,23.00
2017-08-16T20:18:10.700Z,23.00
2017-08-16T20:20:39.834Z,23.00
2017-08-16T20:23:08.865Z,23.00
2017-08-16T20:25:37.831Z,22.90
2017-08-16T20:29:11.810Z,22.90
2017-08-16T20:31:41.715Z,22.80
2017-08-16T20:34:10.751Z,22.80
2017-08-16T20:36:39.882Z,22.80
2017-08-16T20:39:09.107Z,22.90
2017-08-16T20:41:38.146Z,22.80
2017-08-16T20:44:07.191Z,22.60
2017-08-16T20:46:36.112Z,22.50
2017-08-16T20:49:04.954Z,22.30
2017-08-16T20:51:34.546Z,22.40
2017-08-16T20:54:03.341Z,22.30
2017-08-16T20:56:32.577Z,22.40
2017-08-16T20:59:01.962Z,22.40
2017-08-16T21:01:30.929Z,22.50
2017-08-16T21:04:00.337Z,22.50
2017-08-16T21:06:29.319Z,22.50
2017-08-16T21:08:58.352Z,22.50
2017-08-16T21:11:27.395Z,22.50
2017-08-16T21:13:56.555Z,22.50
2017-08-16T21:16:25.631Z,22.50
2017-08-16T21:18:54.712Z,22.60
2017-08-16T21:21:23.634Z,22.50
2017-08-16T21:23:52.626Z,22.50
2017-08-16T21:26:21.464Z,22.50
2017-08-16T21:28:50.337Z,22.50
2017-08-16T21:31:19.181Z,22.50
2017-08-16T21:33:48.000Z,22.50
2017-08-16T21:36:17.242Z,22.50
2017-08-16T21:38:46.664Z,22.50
2017-08-16T21:41:15.529Z,22.40
2017-08-16T21:43:45.503Z,22.30
2017-08-16T21:46:14.510Z,22.30
2017-08-16T21:48:43.354Z,22.30
2017-08-16T21:51:12.332Z,22.30
2017-08-16T21:53:41.110Z,22.30
2017-08-16T21:56:10.073Z,22.20
2017-08-16T21:58:38.971Z,22.20
2017-08-16T22:01:07.831Z,22.20
2017-08-16T22:03:36.762Z,22.20
2017-08-16T22:06:05.645Z,22.00
2017-08-16T22:08:34.619Z,22.00
2017-08-16T22:11:03.987Z,22.00
2017-08-16T22:13:33.065Z,22.10
2017-08-16T22:16:02.124Z,22.00
2017-08-16T22:18:37.400Z,22.10
2017-08-16T22:21:06.484Z,22.00
2017-08-16T22:23:35.533Z,21.90
2017-08-16T22:26:04.654Z,21.90
2017-08-16T22:28:33.664Z,22.00
2017-08-16T22:31:02.679Z,22.00
2017-08-16T22:33:31.745Z,22.00
2017-08-16T22:36:00.808Z,21.90
2017-08-16T22:38:29.798Z,21.90
2017-08-16T22:40:58.619Z,21.90
2017-08-16T22:43:27.538Z,21.60
2017-08-16T22:45:56.890Z,21.70
2017-08-16T22:48:25.684Z,21.70
2017-08-16T22:50:54.547Z,21.70
2017-08-16T22:53:23.438Z,21.70
2017-08-16T22:55:52.346Z,21.50
2017-08-16T22:58:21.246Z,21.60
2017-08-16T23:00:50.153Z,21.60
2017-08-16T23:03:19.153Z,21.70
2017-08-16T23:05:47.949Z,21.80
2017-08-16T23:08:16.945Z,21.80
2017-08-16T23:10:46.473Z,21.80
2017-08-16T23:13:15.445Z,21.60
2017-08-16T23:15:44.541Z,21.30
2017-08-16T23:18:13.579Z,21.40
2017-08-16T23:20:42.651Z,21.50
2017-08-16T23:23:11.910Z,21.60
2017-08-16T23:25:40.907Z,21.70
2017-08-16T23:28:09.760Z,21.70
2017-08-16T23:30:38.698Z,21.70
2017-08-16T23:33:07.658Z,21.60
2017-08-16T23:35:36.597Z,21.70
2017-08-16T23:38:05.464Z,21.80
2017-08-16T23:40:34.252Z,21.70
2017-08-16T23:43:03.080Z,21.60
2017-08-16T23:45:31.985Z,21.60
2017-08-16T23:48:01.265Z,21.70
2017-08-16T23:50:30.351Z,21.60
2017-08-16T23:52:59.214Z,21.40
2017-08-16T23:55:28.139Z,21.20
2017-08-16T23:57:56.902Z,21.20
